Time;durP1;ratioP1;P1;durP2;ratioP2;P2;SDS_P1;SDS_P2;PMS_P1;PMS_P2;Temp;Humidity;BMP_temperature;BMP_pressure;BME280_temperature;BME280_humidity;BME280_pressure;Samples;Min_cycle;Max_cycle;Signal;HPM_P1;HPM_P2
2023/01/11 00:02:10;;;;;;;1.05;0.57;;;10.20;99.90;;;;;;4838890;29;20034;-76
2023/01/11 00:04:36;;;;;;;0.40;0.40;;;10.20;99.90;;;;;;4862120;29;20049;-76
2023/01/11 00:07:02;;;;;;;0.52;0.52;;;10.30;99.90;;;;;;4839847;29;20046;-75
2023/01/11 00:09:28;;;;;;;2.67;1.27;;;10.30;99.90;;;;;;4840405;29;20038;-76
2023/01/11 00:11:54;;;;;;;4.10;3.10;;;10.30;99.90;;;;;;4825255;29;20034;-74
2023/01/11 00:14:20;;;;;;;0.40;0.40;;;10.30;99.90;;;;;;4821811;29;20034;-76
2023/01/11 00:16:46;;;;;;;0.57;0.50;;;10.30;99.90;;;;;;4837330;29;20030;-75
2023/01/11 00:19:12;;;;;;;0.55;0.55;;;10.40;99.90;;;;;;4821648;29;20070;-76
2023/01/11 00:21:38;;;;;;;0.70;0.70;;;10.40;99.90;;;;;;4806604;29;20053;-75
2023/01/11 00:24:04;;;;;;;2.00;1.10;;;10.40;99.90;;;;;;4828876;29;20097;-76
2023/01/11 00:26:30;;;;;;;1.13;0.82;;;10.40;99.90;;;;;;4856506;29;20048;-75
2023/01/11 00:28:56;;;;;;;0.35;0.35;;;10.40;99.90;;;;;;4824626;29;20065;-76
2023/01/11 00:31:22;;;;;;;1.17;1.17;;;10.50;99.90;;;;;;4839883;29;20045;-76
2023/01/11 00:33:48;;;;;;;0.68;0.35;;;10.50;99.90;;;;;;4821791;29;20034;-75
2023/01/11 00:36:13;;;;;;;1.88;0.77;;;10.50;99.90;;;;;;4806836;29;20105;-75
2023/01/11 00:38:43;;;;;;;0.20;0.20;;;10.50;99.90;;;;;;4822165;29;20087;-75
2023/01/11 00:49:24;;;;;;;1.77;0.73;;;10.40;99.90;;;;;;4839415;29;20128;-76
2023/01/11 00:51:50;;;;;;;1.10;0.90;;;10.40;99.90;;;;;;4809234;29;20033;-76
2023/01/11 00:54:16;;;;;;;0.70;0.63;;;10.40;99.90;;;;;;4847470;29;20030;-76
2023/01/11 00:56:42;;;;;;;1.17;1.08;;;10.40;99.90;;;;;;4821536;29;20480;-76
2023/01/11 00:59:08;;;;;;;2.33;0.77;;;10.30;99.90;;;;;;4806441;29;20022;-76
2023/01/11 01:01:35;;;;;;;0.80;0.80;;;10.30;99.90;;;;;;4806150;29;20042;-76
2023/01/11 01:04:01;;;;;;;1.90;1.20;;;10.30;99.90;;;;;;4833797;29;20034;-75
2023/01/11 01:06:27;;;;;;;1.20;0.90;;;10.20;99.90;;;;;;4839192;29;20033;-76
2023/01/11 01:08:54;;;;;;;1.10;1.00;;;10.30;99.90;;;;;;4839156;29;20062;-76
2023/01/11 01:11:20;;;;;;;1.77;1.67;;;10.20;99.90;;;;;;4809046;29;20831;-76
2023/01/11 01:16:31;;;;;;;2.40;1.17;;;10.20;99.90;;;;;;4820774;29;20034;-76
2023/01/11 01:19:00;;;;;;;0.98;0.75;;;10.20;99.90;;;;;;4820950;29;20049;-76
2023/01/11 01:21:26;;;;;;;1.58;1.48;;;10.20;99.90;;;;;;4820986;29;20060;-76
2023/01/11 01:23:56;;;;;;;0.80;0.80;;;10.20;99.90;;;;;;4824230;29;20038;-75
2023/01/11 01:26:22;;;;;;;0.63;0.50;;;10.20;99.90;;;;;;4856044;29;20059;-75
2023/01/11 01:28:49;;;;;;;0.93;0.93;;;10.20;99.90;;;;;;4839030;29;20030;-75
2023/01/11 01:31:15;;;;;;;3.10;0.85;;;10.10;99.90;;;;;;4855210;29;20089;-75
2023/01/11 01:33:42;;;;;;;0.95;0.95;;;10.20;99.90;;;;;;4821189;29;20038;-76
2023/01/11 01:36:08;;;;;;;0.95;0.95;;;10.20;99.90;;;;;;4837049;29;20053;-75
2023/01/11 01:38:34;;;;;;;0.60;0.60;;;10.20;99.90;;;;;;4837155;29;20042;-76
2023/01/11 01:41:00;;;;;;;0.95;0.95;;;10.20;99.90;;;;;;4820576;29;20039;-76
2023/01/11 01:43:50;;;;;;;1.63;1.05;;;10.20;99.90;;;;;;4820668;29;20034;-76
2023/01/11 01:46:17;;;;;;;0.60;0.60;;;10.20;99.90;;;;;;4844772;29;20102;-76
2023/01/11 01:49:05;;;;;;;2.08;0.80;;;10.20;99.90;;;;;;4855231;29;20034;-77
2023/01/11 01:51:42;;;;;;;0.88;0.88;;;10.20;99.90;;;;;;4843023;29;20042;-76
2023/01/11 01:54:11;;;;;;;1.00;0.88;;;10.20;99.90;;;;;;4849780;29;20022;-73
2023/01/11 01:56:44;;;;;;;2.55;0.65;;;10.20;99.90;;;;;;4840818;29;20068;-76
2023/01/11 01:59:13;;;;;;;0.80;0.80;;;10.20;99.90;;;;;;4824399;29;20045;-76
2023/01/11 02:01:49;;;;;;;3.15;1.10;;;10.20;99.90;;;;;;4840346;29;20034;-76
2023/01/11 02:04:25;;;;;;;0.98;0.98;;;10.20;99.90;;;;;;4836539;29;20037;-76
2023/01/11 02:07:07;;;;;;;0.85;0.77;;;10.20;99.90;;;;;;4858664;29;20030;-76
2023/01/11 02:09:49;;;;;;;0.68;0.65;;;10.20;99.90;;;;;;4827213;29;20034;-76
2023/01/11 02:12:15;;;;;;;1.10;1.10;;;10.20;99.90;;;;;;4858806;29;20093;-75
2023/01/11 02:14:43;;;;;;;1.30;0.82;;;10.30;99.90;;;;;;4841094;29;20018;-76
2023/01/11 02:17:09;;;;;;;0.60;0.60;;;10.30;99.90;;;;;;4841598;29;20040;-76
2023/01/11 02:19:53;;;;;;;1.08;0.50;;;10.30;99.90;;;;;;4858371;29;20073;-75
2023/01/11 02:22:43;;;;;;;0.35;0.35;;;10.30;99.90;;;;;;4841625;29;20125;-75
2023/01/11 02:25:37;;;;;;;0.70;0.70;;;10.30;99.90;;;;;;4845538;29;20026;-76
2023/01/11 02:28:11;;;;;;;0.77;0.77;;;10.30;99.90;;;;;;4842070;29;20042;-75
2023/01/11 02:30:46;;;;;;;3.50;0.90;;;10.30;99.90;;;;;;4839656;29;20038;-75
2023/01/11 02:33:23;;;;;;;0.50;0.50;;;10.30;99.90;;;;;;4839410;29;20045;-75
2023/01/11 02:36:17;;;;;;;0.77;0.77;;;10.40;99.90;;;;;;4839216;29;20042;-75
2023/01/11 02:38:49;;;;;;;0.50;0.50;;;10.40;99.90;;;;;;4823206;29;20133;-75
2023/01/11 02:47:42;;;;;;;1.02;0.68;;;10.40;99.90;;;;;;4840105;29;20034;-75
2023/01/11 02:50:12;;;;;;;0.43;0.38;;;10.50;99.90;;;;;;4822499;29;20088;-75
2023/01/11 02:52:53;;;;;;;0.75;0.73;;;10.50;99.90;;;;;;4839320;29;20443;-76
2023/01/11 02:55:25;;;;;;;0.40;0.40;;;10.50;99.90;;;;;;4808069;29;20030;-75
2023/01/11 02:57:54;;;;;;;0.50;0.50;;;10.50;99.90;;;;;;4822804;29;20091;-75
2023/01/11 03:00:20;;;;;;;0.30;0.30;;;10.50;99.90;;;;;;4822611;29;20046;-76
2023/01/11 03:03:14;;;;;;;0.45;0.30;;;10.60;99.90;;;;;;4839240;29;20091;-75
2023/01/11 03:05:53;;;;;;;0.50;0.50;;;10.60;99.90;;;;;;4853245;29;20101;-75
2023/01/11 03:08:32;;;;;;;0.50;0.50;;;10.60;99.90;;;;;;4857380;29;20045;-75
2023/01/11 03:14:12;;;;;;;0.40;0.40;;;10.60;99.90;;;;;;4855529;29;20116;-75
2023/01/11 03:16:59;;;;;;;0.40;0.40;;;10.60;99.90;;;;;;4840269;29;20041;-76
2023/01/11 03:19:31;;;;;;;4.88;0.45;;;10.60;99.90;;;;;;4857058;29;20037;-76
2023/01/11 03:22:03;;;;;;;0.30;0.30;;;10.60;99.90;;;;;;4857163;29;20041;-75
2023/01/11 03:24:50;;;;;;;0.35;0.35;;;10.60;99.90;;;;;;4822058;29;20042;-75
2023/01/11 03:27:31;;;;;;;0.30;0.30;;;10.60;99.90;;;;;;4838907;29;20081;-75
2023/01/11 03:30:10;;;;;;;0.17;0.17;;;10.60;99.90;;;;;;4839353;29;20054;-75
2023/01/11 03:32:51;;;;;;;0.93;0.60;;;10.60;99.90;;;;;;4839237;29;20030;-75
2023/01/11 03:35:40;;;;;;;0.20;0.20;;;10.60;99.90;;;;;;4833980;29;20060;-74
2023/01/11 03:38:15;;;;;;;0.50;0.50;;;10.60;99.90;;;;;;4856859;29;20060;-76
2023/01/11 03:40:46;;;;;;;0.70;0.35;;;10.60;99.90;;;;;;4856771;29;20037;-76
2023/01/11 03:43:16;;;;;;;0.40;0.40;;;10.60;99.90;;;;;;4856746;29;20075;-76
2023/01/11 03:45:45;;;;;;;;;;;10.60;99.90;;;;;;4855330;29;20044;-75
2023/01/11 03:48:23;;;;;;;1.65;1.38;;;10.60;99.90;;;;;;4856586;29;19961;-76
2023/01/11 03:50:51;;;;;;;0.40;0.40;;;10.70;99.90;;;;;;4856503;29;20030;-76
2023/01/11 03:53:19;;;;;;;0.63;0.45;;;10.70;99.90;;;;;;4840091;29;20037;-76
2023/01/11 03:55:50;;;;;;;0.40;0.40;;;10.70;99.90;;;;;;4824788;29;20030;-76
2023/01/11 03:58:16;;;;;;;0.30;0.30;;;10.70;99.90;;;;;;4838001;29;20030;-75
2023/01/11 04:00:43;;;;;;;0.10;0.10;;;10.70;99.90;;;;;;4821764;29;20050;-76
2023/01/11 04:03:11;;;;;;;0.20;0.20;;;10.70;99.90;;;;;;4838302;29;20113;-76
2023/01/11 04:05:38;;;;;;;2.30;0.40;;;10.70;99.90;;;;;;4858024;29;20041;-75
2023/01/11 04:08:04;;;;;;;0.30;0.30;;;10.70;99.90;;;;;;4856281;29;20064;-76
2023/01/11 04:10:30;;;;;;;0.85;0.85;;;10.70;99.90;;;;;;4839651;29;20042;-75
2023/01/11 04:12:56;;;;;;;1.20;0.57;;;10.70;99.90;;;;;;4839581;29;20038;-76
2023/01/11 04:15:22;;;;;;;0.52;0.47;;;10.70;99.90;;;;;;4855566;29;20030;-74
2023/01/11 04:17:47;;;;;;;0.20;0.20;;;10.70;99.90;;;;;;4855699;29;20484;-75
2023/01/11 04:20:13;;;;;;;0.20;0.20;;;10.80;99.90;;;;;;4856175;29;20038;-76
2023/01/11 04:22:39;;;;;;;0.70;0.28;;;10.80;99.90;;;;;;4856136;29;20026;-74
2023/01/11 04:25:07;;;;;;;0.57;0.35;;;10.80;99.90;;;;;;4846417;29;20030;-76
2023/01/11 04:27:33;;;;;;;2.28;0.65;;;10.80;99.90;;;;;;4838110;29;20047;-73
2023/01/11 04:30:00;;;;;;;0.40;0.40;;;10.80;99.90;;;;;;4822530;29;20133;-76
2023/01/11 04:32:25;;;;;;;0.43;0.43;;;10.80;99.90;;;;;;4837873;29;20053;-73
2023/01/11 04:34:51;;;;;;;0.25;0.25;;;10.80;99.90;;;;;;4845004;29;20137;-76
2023/01/11 04:37:17;;;;;;;0.55;0.52;;;10.80;99.90;;;;;;4856056;29;20098;-73
2023/01/11 04:39:43;;;;;;;0.50;0.50;;;10.80;99.90;;;;;;4846007;29;20045;-75
2023/01/11 04:42:20;;;;;;;0.40;0.38;;;10.80;99.90;;;;;;4833917;29;20045;-76
2023/01/11 04:44:48;;;;;;;0.50;0.50;;;10.90;99.90;;;;;;4855634;29;20046;-73
2023/01/11 04:47:19;;;;;;;0.20;0.20;;;10.80;99.90;;;;;;4855771;29;20087;-76
2023/01/11 04:49:45;;;;;;;0.20;0.20;;;10.80;99.90;;;;;;4856131;29;20057;-76
2023/01/11 04:52:13;;;;;;;0.57;0.57;;;10.80;99.90;;;;;;4821491;29;20034;-75
2023/01/11 04:54:39;;;;;;;2.60;0.95;;;10.90;99.90;;;;;;4837458;29;20030;-76
2023/01/11 04:57:06;;;;;;;0.68;0.68;;;10.90;99.90;;;;;;4837393;29;20050;-76
2023/01/11 04:59:32;;;;;;;1.27;1.13;;;10.90;99.90;;;;;;4837409;29;20073;-76
2023/01/11 05:01:58;;;;;;;0.30;0.30;;;10.90;99.90;;;;;;4848626;29;20030;-76
2023/01/11 05:04:24;;;;;;;0.10;0.10;;;10.80;99.90;;;;;;4862588;29;20041;-76
2023/01/11 05:06:51;;;;;;;0.32;0.32;;;10.90;99.90;;;;;;4857192;29;20040;-74
2023/01/11 05:09:18;;;;;;;0.50;0.50;;;10.90;99.90;;;;;;4873725;29;20033;-76
2023/01/11 05:11:44;;;;;;;0.40;0.40;;;10.90;99.90;;;;;;4863200;29;20117;-76
2023/01/11 05:14:11;;;;;;;1.23;0.45;;;10.90;99.90;;;;;;4839022;29;20396;-76
2023/01/11 05:16:36;;;;;;;0.47;0.47;;;10.90;99.90;;;;;;4855464;29;20030;-76
2023/01/11 05:19:03;;;;;;;0.40;0.40;;;10.90;99.90;;;;;;4855011;29;20066;-76
2023/01/11 05:21:32;;;;;;;0.60;0.60;;;10.90;99.90;;;;;;4852869;29;20038;-74
2023/01/11 05:24:00;;;;;;;0.57;0.57;;;10.90;99.90;;;;;;4844342;29;20073;-76
2023/01/11 05:26:29;;;;;;;1.27;0.68;;;10.90;99.90;;;;;;4836953;29;20034;-76
2023/01/11 05:28:57;;;;;;;0.22;0.22;;;10.90;99.90;;;;;;4835970;29;20043;-75
2023/01/11 05:31:23;;;;;;;0.30;0.30;;;10.90;99.90;;;;;;4841758;29;20499;-76
2023/01/11 05:33:49;;;;;;;0.73;0.43;;;10.90;99.90;;;;;;4837845;29;20037;-76
2023/01/11 05:36:17;;;;;;;0.17;0.17;;;10.90;99.90;;;;;;4835280;29;20129;-75
2023/01/11 05:38:45;;;;;;;0.35;0.35;;;10.90;99.90;;;;;;4828433;29;20036;-75
2023/01/11 05:41:11;;;;;;;1.65;1.17;;;10.90;99.90;;;;;;4832693;29;20038;-75
2023/01/11 05:45:27;;;;;;;0.52;0.50;;;10.90;99.90;;;;;;4846527;29;20059;-75
2023/01/11 05:46:25;;;;;;;0.47;0.40;;;10.90;99.90;;;;;;4828524;29;20038;-76
2023/01/11 05:48:51;;;;;;;0.20;0.20;;;10.90;99.90;;;;;;4854371;29;20495;-76
2023/01/11 05:51:17;;;;;;;0.40;0.40;;;10.90;99.90;;;;;;4819531;29;20044;-76
2023/01/11 05:53:44;;;;;;;0.35;0.32;;;10.90;99.90;;;;;;4822638;29;20054;-76
2023/01/11 05:56:10;;;;;;;0.20;0.20;;;10.90;99.90;;;;;;4822766;29;20082;-75
2023/01/11 05:58:36;;;;;;;0.70;0.32;;;10.90;99.90;;;;;;4853009;29;20042;-76
2023/01/11 06:01:02;;;;;;;2.83;0.60;;;10.90;99.90;;;;;;4837091;29;20062;-75
2023/01/11 06:03:28;;;;;;;0.40;0.40;;;10.90;99.90;;;;;;4851097;29;20041;-75
2023/01/11 06:05:54;;;;;;;0.40;0.40;;;11.00;99.90;;;;;;4853695;29;20392;-75
2023/01/11 06:08:20;;;;;;;0.30;0.30;;;11.00;99.90;;;;;;4836959;29;20049;-75
2023/01/11 06:10:54;;;;;;;1.23;1.23;;;11.00;99.90;;;;;;4821297;29;20051;-76
2023/01/11 06:13:26;;;;;;;4.18;1.30;;;11.00;99.90;;;;;;4836359;29;20373;-76
2023/01/11 06:16:01;;;;;;;0.90;0.85;;;11.00;99.90;;;;;;4835837;29;20060;-75
2023/01/11 06:18:28;;;;;;;0.70;0.70;;;11.00;99.90;;;;;;4823418;29;20503;-76
2023/01/11 06:20:54;;;;;;;1.23;1.13;;;11.00;99.90;;;;;;4853049;29;20025;-75
2023/01/11 06:23:21;;;;;;;1.00;1.00;;;11.00;99.90;;;;;;4832945;29;20036;-75
2023/01/11 06:25:47;;;;;;;2.53;1.45;;;11.10;99.90;;;;;;4843770;29;20035;-75
2023/01/11 06:28:14;;;;;;;2.78;1.67;;;11.10;99.90;;;;;;4851569;29;20061;-75
2023/01/11 06:30:40;;;;;;;1.58;1.48;;;11.10;99.90;;;;;;4833672;29;20102;-75
2023/01/11 06:33:06;;;;;;;1.48;1.38;;;11.00;99.90;;;;;;4842320;29;20039;-75
2023/01/11 06:35:40;;;;;;;5.22;1.88;;;11.00;99.90;;;;;;4809502;29;20095;-75
2023/01/11 06:38:08;;;;;;;2.08;1.90;;;11.00;99.90;;;;;;4834196;29;20038;-75
2023/01/11 06:40:35;;;;;;;1.40;1.30;;;11.00;99.90;;;;;;4844195;29;20025;-75
2023/01/11 06:43:01;;;;;;;2.33;2.08;;;11.00;99.90;;;;;;4840692;29;20026;-75
2023/01/11 06:45:27;;;;;;;2.83;2.42;;;11.00;99.90;;;;;;4841407;29;20041;-75
2023/01/11 06:47:53;;;;;;;2.80;2.60;;;11.00;99.90;;;;;;4840601;29;20391;-75
2023/01/11 06:50:19;;;;;;;2.35;2.15;;;11.00;99.90;;;;;;4819494;29;20612;-76
2023/01/11 06:52:56;;;;;;;2.70;2.47;;;11.00;99.90;;;;;;4820602;29;20057;-75
2023/01/11 06:55:23;;;;;;;3.97;3.38;;;10.90;99.90;;;;;;4840805;29;20030;-75
2023/01/11 06:57:49;;;;;;;3.83;2.70;;;10.90;99.90;;;;;;4846092;29;20030;-75
2023/01/11 07:00:16;;;;;;;6.97;3.05;;;10.90;99.90;;;;;;4836964;29;20038;-75
2023/01/11 07:02:42;;;;;;;6.70;4.90;;;10.90;99.90;;;;;;4857228;29;20488;-76
2023/01/11 07:05:09;;;;;;;4.57;3.65;;;10.90;99.90;;;;;;4851989;29;20022;-76
2023/01/11 07:07:36;;;;;;;8.60;4.55;;;10.90;99.90;;;;;;4838012;29;20377;-75
2023/01/11 07:10:15;;;;;;;5.97;3.17;;;10.90;99.90;;;;;;4806222;29;20083;-75
2023/01/11 07:12:41;;;;;;;8.10;4.78;;;10.90;99.90;;;;;;4834084;29;20062;-76
2023/01/11 07:15:09;;;;;;;5.15;4.57;;;10.90;99.90;;;;;;4838599;29;20029;-76
2023/01/11 07:17:35;;;;;;;7.22;3.60;;;10.70;99.90;;;;;;4827653;29;20026;-76
2023/01/11 07:20:03;;;;;;;5.35;3.03;;;10.70;99.90;;;;;;4823743;29;20041;-76
2023/01/11 07:22:29;;;;;;;3.90;2.25;;;10.60;99.90;;;;;;4850223;29;20030;-75
2023/01/11 07:24:54;;;;;;;4.93;3.65;;;10.60;99.90;;;;;;4823873;29;20570;-76
2023/01/11 07:27:20;;;;;;;5.93;3.65;;;10.60;99.90;;;;;;4847383;29;20026;-75
2023/01/11 07:29:46;;;;;;;6.90;3.13;;;10.60;99.90;;;;;;4827638;29;20106;-75
2023/01/11 07:32:13;;;;;;;11.10;2.85;;;10.50;99.90;;;;;;4834263;29;20069;-74
2023/01/11 07:34:39;;;;;;;8.50;2.47;;;10.50;99.90;;;;;;4830383;29;20051;-75
2023/01/11 07:37:05;;;;;;;4.43;4.03;;;10.50;99.90;;;;;;4805388;29;20059;-75
2023/01/11 07:39:31;;;;;;;6.35;2.90;;;10.50;99.90;;;;;;4837356;29;20037;-75
2023/01/11 07:44:41;;;;;;;7.82;3.33;;;10.40;99.90;;;;;;4818529;29;20049;-75
2023/01/11 07:47:07;;;;;;;7.68;3.40;;;10.30;99.90;;;;;;4806395;29;20030;-75
2023/01/11 07:49:33;;;;;;;10.80;3.45;;;10.30;99.90;;;;;;4837733;29;20048;-75
2023/01/11 07:51:59;;;;;;;6.63;4.45;;;10.30;99.90;;;;;;4808369;29;20106;-74
2023/01/11 07:54:25;;;;;;;15.73;3.65;;;10.30;99.90;;;;;;4837781;29;20022;-74
2023/01/11 07:56:51;;;;;;;8.50;2.78;;;10.30;99.90;;;;;;4809373;29;20039;-74
2023/01/11 07:59:17;;;;;;;6.00;3.53;;;10.30;99.90;;;;;;4806039;29;20038;-74
2023/01/11 08:01:43;;;;;;;13.80;4.10;;;10.20;99.90;;;;;;4806180;29;20037;-74
2023/01/11 08:04:13;;;;;;;18.45;4.93;;;10.40;99.90;;;;;;4806436;29;20058;-75
2023/01/11 08:06:39;;;;;;;5.68;3.08;;;10.20;99.90;;;;;;4823184;29;20134;-74
2023/01/11 08:09:06;;;;;;;8.20;2.88;;;10.00;99.90;;;;;;4839048;29;20034;-75
2023/01/11 08:17:01;;;;;;;9.30;4.13;;;10.10;99.90;;;;;;4839538;29;20035;-75
2023/01/11 08:19:27;;;;;;;13.18;4.55;;;10.10;99.90;;;;;;4838467;29;20041;-75
2023/01/11 08:21:53;;;;;;;9.45;4.07;;;10.10;99.90;;;;;;4838953;29;20040;-74
2023/01/11 08:24:19;;;;;;;13.35;3.88;;;10.20;99.90;;;;;;4839040;29;20477;-74
2023/01/11 08:26:44;;;;;;;10.30;3.25;;;10.10;99.90;;;;;;4838922;29;20043;-74
2023/01/11 08:29:11;;;;;;;12.95;3.30;;;10.10;99.90;;;;;;4808160;29;20050;-75
2023/01/11 08:31:37;;;;;;;18.17;4.28;;;10.00;99.90;;;;;;4819594;29;20035;-74
2023/01/11 08:34:02;;;;;;;18.30;4.10;;;10.00;99.90;;;;;;4820618;29;20050;-75
2023/01/11 08:36:30;;;;;;;5.78;1.85;;;10.00;99.90;;;;;;4839036;29;20055;-75
2023/01/11 08:38:56;;;;;;;7.18;2.75;;;10.00;99.90;;;;;;4850968;29;20095;-75
2023/01/11 08:41:23;;;;;;;12.95;3.70;;;10.00;99.90;;;;;;4856264;29;20037;-75
2023/01/11 08:43:49;;;;;;;7.35;3.25;;;10.00;99.90;;;;;;4856312;29;20118;-75
2023/01/11 08:46:17;;;;;;;7.95;4.15;;;10.00;99.90;;;;;;4856388;29;20036;-75
2023/01/11 08:48:43;;;;;;;12.10;2.38;;;10.00;99.90;;;;;;4824000;29;20033;-74
2023/01/11 08:51:09;;;;;;;9.07;3.08;;;10.00;99.90;;;;;;4855696;29;20044;-75
2023/01/11 08:53:36;;;;;;;12.05;2.78;;;10.00;99.90;;;;;;4830661;29;20115;-75
2023/01/11 08:56:02;;;;;;;11.98;2.42;;;10.00;99.90;;;;;;4839213;29;20026;-74
2023/01/11 08:58:28;;;;;;;11.38;3.88;;;9.90;99.90;;;;;;4821158;29;20042;-75
2023/01/11 09:00:57;;;;;;;17.23;4.35;;;10.00;99.90;;;;;;4837577;29;20354;-75
2023/01/11 09:03:23;;;;;;;15.05;4.88;;;9.90;99.90;;;;;;4837632;29;20149;-74
2023/01/11 09:05:49;;;;;;;6.93;3.60;;;9.90;99.90;;;;;;4821200;29;20034;-75
2023/01/11 09:08:15;;;;;;;15.48;5.88;;;9.90;99.90;;;;;;4838259;29;20038;-74
2023/01/11 09:10:41;;;;;;;19.23;4.07;;;9.90;99.90;;;;;;4837735;29;20039;-74
2023/01/11 09:13:07;;;;;;;10.43;5.93;;;9.90;99.90;;;;;;4837716;29;20041;-75
2023/01/11 09:15:33;;;;;;;12.35;4.97;;;9.90;99.90;;;;;;4837548;29;20094;-74
2023/01/11 09:17:59;;;;;;;11.13;5.07;;;9.90;99.90;;;;;;4832577;29;20053;-75
2023/01/11 09:20:25;;;;;;;9.90;4.03;;;9.90;99.90;;;;;;4839627;29;20037;-75
2023/01/11 09:22:52;;;;;;;8.20;3.42;;;9.90;99.90;;;;;;4855379;29;20408;-75
2023/01/11 09:25:18;;;;;;;7.78;3.00;;;9.90;99.90;;;;;;4855406;29;20034;-75
2023/01/11 09:27:45;;;;;;;11.82;4.38;;;9.90;99.90;;;;;;4845704;29;20030;-75
2023/01/11 09:30:13;;;;;;;8.55;3.08;;;9.90;99.90;;;;;;4836143;29;20034;-75
2023/01/11 09:32:39;;;;;;;8.00;2.50;;;9.90;99.90;;;;;;4820883;29;20035;-74
2023/01/11 09:35:06;;;;;;;8.68;3.63;;;10.00;99.90;;;;;;4838092;29;20605;-74
2023/01/11 09:37:32;;;;;;;8.65;3.25;;;10.10;99.90;;;;;;4837579;29;20056;-75
2023/01/11 09:39:58;;;;;;;5.35;3.35;;;10.10;99.90;;;;;;4837110;29;20042;-74
2023/01/11 09:42:38;;;;;;;7.15;4.05;;;10.20;99.90;;;;;;4837249;29;20042;-74
2023/01/11 09:45:05;;;;;;;9.70;4.10;;;10.20;99.90;;;;;;4835731;29;20042;-75
2023/01/11 09:47:31;;;;;;;8.52;4.03;;;10.20;99.90;;;;;;4855170;29;20038;-74
2023/01/11 09:50:02;;;;;;;7.93;4.32;;;10.20;99.90;;;;;;4854904;29;20034;-74
2023/01/11 09:52:39;;;;;;;5.13;3.05;;;10.20;99.90;;;;;;4855211;29;20575;-75
2023/01/11 09:55:21;;;;;;;9.48;4.28;;;10.30;99.90;;;;;;4839707;29;20045;-74
2023/01/11 09:58:01;;;;;;;6.93;4.18;;;10.40;99.90;;;;;;4837148;29;20053;-74
2023/01/11 10:00:36;;;;;;;6.60;3.67;;;10.50;99.90;;;;;;4836884;29;20035;-75
2023/01/11 10:03:12;;;;;;;8.38;4.13;;;10.60;99.90;;;;;;4836732;29;20049;-75
2023/01/11 10:05:54;;;;;;;10.65;4.70;;;10.50;99.90;;;;;;4823414;29;20098;-75
2023/01/11 10:08:26;;;;;;;15.68;4.80;;;11.10;99.90;;;;;;4873538;29;20045;-75
2023/01/11 10:11:31;;;;;;;14.38;4.93;;;11.40;99.90;;;;;;4873548;29;20041;-74
2023/01/11 10:13:57;;;;;;;10.90;5.47;;;11.40;99.90;;;;;;4866076;29;20105;-75
2023/01/11 10:16:50;;;;;;;11.32;5.40;;;11.60;99.90;;;;;;4825485;29;20365;-75
2023/01/11 10:19:19;;;;;;;6.50;3.97;;;12.50;99.90;;;;;;4842670;29;20075;-75
2023/01/11 10:21:54;;;;;;;12.60;5.68;;;12.80;99.90;;;;;;4842510;29;20045;-75
2023/01/11 10:24:26;;;;;;;11.07;4.38;;;12.70;99.90;;;;;;4849911;29;20038;-76
2023/01/11 10:26:56;;;;;;;12.68;4.65;;;12.50;99.90;;;;;;4823725;29;20062;-76
2023/01/11 10:29:56;;;;;;;19.52;5.63;;;12.00;99.90;;;;;;4839662;29;20038;-75
2023/01/11 10:35:44;;;;;;;17.27;4.95;;;11.60;99.90;;;;;;4823111;29;20420;-75
2023/01/11 10:39:14;;;;;;;12.77;3.90;;;11.40;99.90;;;;;;4823896;29;20041;-75
2023/01/11 10:41:51;;;;;;;;;;;11.60;99.90;;;;;;4769126;30;20051;-75
2023/01/11 10:44:27;;;;;;;13.68;4.25;;;11.70;99.90;;;;;;4783626;30;19943;-75
2023/01/11 10:46:55;;;;;;;9.20;3.20;;;11.80;99.90;;;;;;4822769;29;20050;-76
2023/01/11 10:49:36;;;;;;;11.15;3.55;;;12.00;99.90;;;;;;4817801;29;20027;-75
2023/01/11 10:52:13;;;;;;;12.48;3.70;;;12.20;99.90;;;;;;4839579;29;20034;-75
2023/01/11 10:54:44;;;;;;;11.73;4.68;;;12.40;99.90;;;;;;4839507;29;20038;-75
2023/01/11 10:57:34;;;;;;;8.95;4.43;;;12.90;99.90;;;;;;4839351;29;20039;-75
2023/01/11 11:00:30;;;;;;;8.98;2.45;;;13.70;99.90;;;;;;4839401;29;20046;-75
2023/01/11 11:03:31;;;;;;;8.40;3.95;;;14.10;99.90;;;;;;4848526;29;20038;-75
2023/01/11 11:06:12;;;;;;;13.63;3.55;;;14.80;99.90;;;;;;4839396;29;20056;-76
2023/01/11 11:08:52;;;;;;;3.45;2.50;;;15.00;99.90;;;;;;4859868;29;20037;-75
2023/01/11 11:11:26;;;;;;;9.73;2.97;;;15.00;99.90;;;;;;4876484;29;20064;-76
2023/01/11 11:14:08;;;;;;;15.73;4.20;;;15.50;99.90;;;;;;4876705;29;20034;-75
2023/01/11 11:16:44;;;;;;;7.10;3.65;;;15.60;99.90;;;;;;4874385;29;20093;-75
2023/01/11 11:19:17;;;;;;;10.60;3.95;;;15.50;99.90;;;;;;4857916;29;20022;-75
2023/01/11 11:21:43;;;;;;;5.68;1.83;;;15.70;99.90;;;;;;4857635;29;20045;-75
2023/01/11 11:24:35;;;;;;;10.10;4.80;;;15.40;99.90;;;;;;4857568;29;20037;-75
2023/01/11 11:27:13;;;;;;;11.30;2.88;;;15.30;99.90;;;;;;4854907;29;20053;-75
2023/01/11 11:29:42;;;;;;;7.03;2.53;;;15.00;99.90;;;;;;4857928;29;20030;-75
2023/01/11 11:32:18;;;;;;;8.10;3.55;;;15.10;99.90;;;;;;4857401;29;20037;-76
2023/01/11 11:34:48;;;;;;;8.98;3.75;;;15.20;99.90;;;;;;4857128;29;20057;-76
2023/01/11 11:37:24;;;;;;;7.03;3.30;;;15.20;99.90;;;;;;4857503;29;20073;-75
2023/01/11 11:39:51;;;;;;;9.15;3.85;;;14.90;99.90;;;;;;4834416;29;20094;-75
2023/01/11 11:42:20;;;;;;;6.75;2.63;;;14.90;99.90;;;;;;4838987;29;20023;-76
2023/01/11 11:45:12;;;;;;;7.65;3.53;;;14.90;99.90;;;;;;4838872;29;20087;-75
2023/01/11 11:47:37;;;;;;;12.40;2.92;;;15.10;99.90;;;;;;4838732;29;20042;-75
2023/01/11 11:50:19;;;;;;;15.38;3.35;;;14.90;99.90;;;;;;4838426;29;20038;-75
2023/01/11 11:53:02;;;;;;;7.43;3.08;;;14.50;99.90;;;;;;4807281;29;20035;-75
2023/01/11 11:55:31;;;;;;;11.32;3.47;;;14.20;99.90;;;;;;4851002;29;20041;-75
2023/01/11 11:58:03;;;;;;;10.32;3.90;;;13.90;99.90;;;;;;4840594;29;20040;-75
2023/01/11 12:00:33;;;;;;;7.00;3.10;;;13.80;99.90;;;;;;4840523;29;20062;-75
2023/01/11 12:03:11;;;;;;;11.82;3.75;;;13.70;99.90;;;;;;4856721;29;20030;-75
2023/01/11 12:05:46;;;;;;;16.33;5.22;;;13.60;99.90;;;;;;4856680;29;20045;-75
2023/01/11 12:08:14;;;;;;;7.68;3.05;;;13.50;99.90;;;;;;4870786;29;20034;-76
2023/01/11 12:11:12;;;;;;;16.10;3.03;;;13.50;99.90;;;;;;4839997;29;20063;-75
2023/01/11 12:13:41;;;;;;;8.65;2.50;;;13.70;99.90;;;;;;4853325;29;20042;-75
2023/01/11 12:16:32;;;;;;;6.72;2.58;;;13.50;99.90;;;;;;4840012;29;20061;-75
2023/01/11 12:18:58;;;;;;;4.80;1.85;;;13.40;99.90;;;;;;4856950;29;20073;-75
2023/01/11 12:21:27;;;;;;;9.85;4.22;;;13.10;99.90;;;;;;4856654;29;20025;-75
2023/01/11 12:24:22;;;;;;;17.83;3.08;;;13.10;99.90;;;;;;4839695;29;20067;-75
2023/01/11 12:27:17;;;;;;;12.45;3.78;;;13.10;99.90;;;;;;4856459;29;20086;-75
2023/01/11 12:30:07;;;;;;;7.45;3.05;;;12.80;99.90;;;;;;4829453;29;20061;-75
2023/01/11 12:32:36;;;;;;;;;;;12.50;99.90;;;;;;4857030;29;20034;-75
2023/01/11 12:35:22;;;;;;;7.80;4.00;;;12.50;99.90;;;;;;4839973;29;19920;-75
2023/01/11 12:38:13;;;;;;;7.90;3.15;;;12.70;99.90;;;;;;4846756;29;20084;-75
2023/01/11 12:41:00;;;;;;;11.45;3.72;;;12.80;99.90;;;;;;4821911;29;20049;-75
2023/01/11 12:43:35;;;;;;;10.05;2.92;;;12.70;99.90;;;;;;4806562;29;20061;-75
2023/01/11 12:46:28;;;;;;;5.63;2.95;;;12.80;99.90;;;;;;4838162;29;20063;-76
2023/01/11 12:49:03;;;;;;;6.95;2.72;;;13.00;99.90;;;;;;4838114;29;20038;-75
2023/01/11 12:51:39;;;;;;;6.97;2.70;;;13.00;99.90;;;;;;4839273;29;20090;-74
2023/01/11 12:54:19;;;;;;;11.10;3.88;;;13.30;99.90;;;;;;4855848;29;20022;-75
2023/01/11 12:57:03;;;;;;;;;;;13.20;99.90;;;;;;4856367;29;20037;-76
2023/01/11 12:59:38;;;;;;;21.25;3.83;;;13.10;99.90;;;;;;4856273;29;19913;-75
2023/01/11 13:02:23;;;;;;;10.65;3.72;;;13.20;99.90;;;;;;4856846;29;20059;-75
2023/01/11 13:05:14;;;;;;;11.52;3.70;;;13.20;99.90;;;;;;4856150;29;20061;-76
2023/01/11 13:07:58;;;;;;;7.30;2.55;;;13.00;99.90;;;;;;4842553;29;20109;-75
2023/01/11 13:10:41;;;;;;;10.50;3.85;;;12.60;99.90;;;;;;4874611;29;20065;-75
2023/01/11 13:13:22;;;;;;;15.15;4.07;;;12.30;99.90;;;;;;4858375;29;20454;-76
2023/01/11 13:16:20;;;;;;;7.90;3.03;;;12.00;99.90;;;;;;4858004;29;20052;-75
2023/01/11 13:19:07;;;;;;;9.32;4.18;;;11.90;99.90;;;;;;4875051;29;20029;-75
2023/01/11 13:21:35;;;;;;;19.50;4.93;;;11.90;99.90;;;;;;4819770;29;20477;-76
2023/01/11 13:24:08;;;;;;;10.23;2.92;;;11.90;99.90;;;;;;4837755;29;20034;-75
2023/01/11 13:26:44;;;;;;;10.43;3.17;;;11.90;99.90;;;;;;4821130;29;20030;-75
2023/01/11 13:29:09;;;;;;;5.25;2.78;;;11.90;99.90;;;;;;4837580;29;20030;-75
2023/01/11 13:31:36;;;;;;;5.82;3.88;;;11.90;99.90;;;;;;4821500;29;20027;-75
2023/01/11 13:34:28;;;;;;;11.73;5.25;;;12.00;99.90;;;;;;4837564;29;20037;-76
2023/01/11 13:37:01;;;;;;;6.15;2.95;;;12.00;99.90;;;;;;4837286;29;20038;-76
2023/01/11 13:39:53;;;;;;;10.00;3.78;;;11.90;99.90;;;;;;4836924;29;20038;-75
2023/01/11 13:42:34;;;;;;;8.82;3.40;;;11.80;99.90;;;;;;4837394;29;20030;-76